createdAt,value
2022-08-17T00:01:06.854Z,29.25
2022-08-17T00:03:46.779Z,28.45
2022-08-17T00:06:24.784Z,28.73
2022-08-17T00:09:04.782Z,29.87
2022-08-17T00:11:34.810Z,27.02
2022-08-17T00:14:16.795Z,23.30
2022-08-17T00:16:56.314Z,21.55
2022-08-17T00:19:32.929Z,26.13
2022-08-17T00:22:35.052Z,26.73
2022-08-17T00:25:00.786Z,25.50
2022-08-17T00:27:33.777Z,22.00
2022-08-17T00:30:06.803Z,28.40
2022-08-17T00:33:13.797Z,27.25
2022-08-17T00:35:44.400Z,36.37
2022-08-17T00:38:18.784Z,28.88
2022-08-17T00:40:59.280Z,34.20
2022-08-17T00:43:28.023Z,31.40
2022-08-17T00:46:00.778Z,29.25
2022-08-17T00:48:34.772Z,32.33
2022-08-17T00:51:55.824Z,31.65
2022-08-17T00:54:25.467Z,27.48
2022-08-17T00:57:01.979Z,29.38
2022-08-17T00:59:32.282Z,26.80
2022-08-17T01:02:06.762Z,28.40
2022-08-17T01:04:33.515Z,28.92
2022-08-17T01:07:08.770Z,37.85
2022-08-17T01:09:42.796Z,32.13
2022-08-17T01:12:16.780Z,29.05
2022-08-17T01:14:49.943Z,29.70
2022-08-17T01:17:16.478Z,30.55
2022-08-17T01:19:50.781Z,29.48
2022-08-17T01:22:20.017Z,24.42
2022-08-17T01:25:00.777Z,23.90
2022-08-17T01:27:34.817Z,21.73
2022-08-17T01:30:57.284Z,25.20
2022-08-17T01:33:13.023Z,22.00
2022-08-17T01:35:46.770Z,18.80
2022-08-17T01:38:13.415Z,22.67
2022-08-17T01:40:57.442Z,24.30
2022-08-17T01:43:30.080Z,23.60
2022-08-17T01:46:03.754Z,25.42
2022-08-17T01:48:36.539Z,25.55
2022-08-17T01:51:12.769Z,27.50
2022-08-17T01:53:44.231Z,25.23
2022-08-17T01:56:20.815Z,28.17
2022-08-17T01:58:47.487Z,28.13
2022-08-17T02:01:23.844Z,32.15
2022-08-17T02:03:53.397Z,29.58
2022-08-17T02:06:44.981Z,28.43
2022-08-17T02:09:23.238Z,27.15
2022-08-17T02:11:52.804Z,25.15
2022-08-17T02:14:26.771Z,28.25
2022-08-17T02:16:53.767Z,23.58
2022-08-17T02:19:26.777Z,26.20
2022-08-17T02:22:00.747Z,22.17
2022-08-17T02:25:00.552Z,27.73
2022-08-17T02:27:32.748Z,24.40
2022-08-17T02:30:05.765Z,20.85
2022-08-17T02:32:53.001Z,22.90
2022-08-17T02:35:27.784Z,19.67
2022-08-17T02:38:00.765Z,19.13
2022-08-17T02:40:35.703Z,22.58
2022-08-17T02:43:11.763Z,25.17
2022-08-17T02:45:44.752Z,25.23
2022-08-17T02:48:11.655Z,20.90
2022-08-17T02:50:44.788Z,23.83
2022-08-17T02:53:18.751Z,22.95
2022-08-17T02:55:45.378Z,21.95
2022-08-17T02:58:34.472Z,20.47
2022-08-17T03:01:12.860Z,17.65
2022-08-17T03:03:46.809Z,20.80
2022-08-17T03:06:20.768Z,18.98
2022-08-17T03:08:53.760Z,19.13
2022-08-17T03:11:26.761Z,17.70
2022-08-17T03:13:53.201Z,20.75
2022-08-17T03:16:27.796Z,18.88
2022-08-17T03:18:54.986Z,16.65
2022-08-17T03:21:28.767Z,15.75
2022-08-17T03:24:01.757Z,22.63
2022-08-17T03:26:42.749Z,16.85
2022-08-17T03:29:18.984Z,19.75
2022-08-17T03:31:54.756Z,18.77
2022-08-17T03:34:27.765Z,19.27
2022-08-17T03:37:00.735Z,18.67
2022-08-17T03:39:34.781Z,20.77
2022-08-17T03:42:31.377Z,19.45
2022-08-17T03:45:06.735Z,19.45
2022-08-17T03:47:51.699Z,19.50
2022-08-17T03:50:44.760Z,18.90
2022-08-17T03:53:33.722Z,18.65
2022-08-17T03:56:30.768Z,16.88
2022-08-17T03:58:57.136Z,13.50
2022-08-17T04:01:23.766Z,13.15
2022-08-17T04:03:56.749Z,12.30
2022-08-17T04:06:30.781Z,10.23
2022-08-17T04:08:57.198Z,14.00
2022-08-17T04:11:30.747Z,13.18
2022-08-17T04:13:57.264Z,10.25
2022-08-17T04:16:33.525Z,9.20
2022-08-17T04:19:06.742Z,9.70
2022-08-17T04:21:40.755Z,11.20
2022-08-17T04:24:14.812Z,10.95
2022-08-17T04:26:53.826Z,10.70
2022-08-17T04:29:55.098Z,11.47
2022-08-17T04:32:24.857Z,10.88
2022-08-17T04:35:13.758Z,9.02
2022-08-17T04:37:40.222Z,11.65
2022-08-17T04:40:32.769Z,14.48
2022-08-17T04:43:07.763Z,11.30
2022-08-17T04:45:55.251Z,13.80
2022-08-17T04:48:35.402Z,13.40
2022-08-17T04:51:10.737Z,13.82
2022-08-17T04:53:38.890Z,14.30
2022-08-17T04:56:17.059Z,15.43
2022-08-17T04:58:48.132Z,15.57
2022-08-17T05:01:24.543Z,14.90
2022-08-17T05:03:59.766Z,16.02
2022-08-17T05:06:29.747Z,16.58
2022-08-17T05:08:57.817Z,17.23
2022-08-17T05:11:32.768Z,16.35
2022-08-17T05:13:59.657Z,14.77
2022-08-17T05:16:33.729Z,14.23
2022-08-17T05:19:00.208Z,17.10
2022-08-17T05:21:34.747Z,14.23
2022-08-17T05:24:01.188Z,14.70
2022-08-17T05:26:32.462Z,13.27
2022-08-17T05:29:10.746Z,12.07
2022-08-17T05:31:44.978Z,10.20
2022-08-17T05:34:17.729Z,11.30
2022-08-17T05:36:44.764Z,10.45
2022-08-17T05:39:22.772Z,8.70
2022-08-17T05:41:49.209Z,10.23
2022-08-17T05:44:16.502Z,7.95
2022-08-17T05:46:56.756Z,9.37
2022-08-17T05:49:27.883Z,9.25
2022-08-17T05:52:20.250Z,6.82
2022-08-17T05:55:23.731Z,6.82
2022-08-17T05:58:14.983Z,8.13
2022-08-17T06:00:57.392Z,6.93
2022-08-17T06:03:45.749Z,5.90
2022-08-17T06:06:44.744Z,7.05
2022-08-17T06:09:34.735Z,6.65
2022-08-17T06:12:28.756Z,8.50
2022-08-17T06:15:02.260Z,7.63
2022-08-17T06:17:44.745Z,7.57
2022-08-17T06:20:22.807Z,10.80
2022-08-17T06:23:14.004Z,7.35
2022-08-17T06:25:50.890Z,7.50
2022-08-17T06:28:37.032Z,7.50
2022-08-17T06:31:15.495Z,9.80
2022-08-17T06:33:53.736Z,7.50
2022-08-17T06:36:48.720Z,10.10
2022-08-17T06:39:46.758Z,9.27
2022-08-17T06:43:02.454Z,10.37
2022-08-17T06:45:40.730Z,9.80
2022-08-17T06:48:21.722Z,8.60
2022-08-17T06:51:18.744Z,9.75
2022-08-17T06:54:06.423Z,9.93
2022-08-17T06:56:55.438Z,10.63
2022-08-17T06:59:54.799Z,12.02
2022-08-17T07:02:56.867Z,12.82
2022-08-17T07:05:40.727Z,10.38
2022-08-17T07:08:18.520Z,14.20
2022-08-17T07:11:04.751Z,13.77
2022-08-17T07:13:37.379Z,14.10
2022-08-17T07:16:28.766Z,13.40
2022-08-17T07:18:57.200Z,12.95
2022-08-17T07:21:44.738Z,13.85
2022-08-17T07:24:26.234Z,17.63
2022-08-17T07:27:28.709Z,13.98
2022-08-17T07:30:16.743Z,15.65
2022-08-17T07:32:45.260Z,15.43
2022-08-17T07:35:15.331Z,12.15
2022-08-17T07:37:52.716Z,13.50
2022-08-17T07:40:34.786Z,15.18
2022-08-17T07:43:23.067Z,14.57
2022-08-17T07:46:25.714Z,16.27
2022-08-17T07:49:01.748Z,20.13
2022-08-17T07:51:31.511Z,17.13
2022-08-17T07:54:33.730Z,17.20
2022-08-17T07:57:29.408Z,17.33
2022-08-17T08:00:08.713Z,15.80
2022-08-17T08:02:52.737Z,21.00
2022-08-17T08:05:49.862Z,18.00
2022-08-17T08:08:39.851Z,15.52
2022-08-17T08:11:10.139Z,15.98
2022-08-17T08:13:52.809Z,15.30
2022-08-17T08:16:29.645Z,12.48
2022-08-17T08:19:06.721Z,12.73
2022-08-17T08:21:50.713Z,9.48
2022-08-17T08:25:08.732Z,9.00
2022-08-17T08:28:11.780Z,7.90
2022-08-17T08:30:53.706Z,7.78
2022-08-17T08:33:40.908Z,8.00
2022-08-17T08:37:12.982Z,7.93
2022-08-17T08:39:50.770Z,7.80
2022-08-17T08:42:27.324Z,6.95
2022-08-17T08:45:22.713Z,6.47
2022-08-17T08:48:22.911Z,7.60
2022-08-17T08:51:12.712Z,9.02
2022-08-17T08:53:55.396Z,8.23
2022-08-17T08:56:37.708Z,7.25
2022-08-17T08:59:10.690Z,7.80
2022-08-17T09:02:11.798Z,7.07
2022-08-17T09:05:13.931Z,6.90
2022-08-17T09:07:48.780Z,6.38
2022-08-17T09:10:27.321Z,6.88
2022-08-17T09:13:14.713Z,6.78
2022-08-17T09:15:46.715Z,6.40
2022-08-17T09:18:59.924Z,7.45
2022-08-17T09:21:48.765Z,8.85
2022-08-17T09:24:37.112Z,8.00
2022-08-17T09:27:28.711Z,7.65
2022-08-17T09:30:07.828Z,8.63
2022-08-17T09:32:50.735Z,9.32
2022-08-17T09:35:36.734Z,10.93
2022-08-17T09:38:22.300Z,10.07
2022-08-17T09:41:04.720Z,9.00
2022-08-17T09:43:46.705Z,8.57
2022-08-17T09:46:34.715Z,10.93
2022-08-17T09:49:25.397Z,10.40
2022-08-17T09:51:58.465Z,8.93
2022-08-17T09:54:39.701Z,10.95
2022-08-17T09:57:38.785Z,8.50
2022-08-17T10:00:18.769Z,9.80
2022-08-17T10:02:45.309Z,9.75
2022-08-17T10:05:43.706Z,10.43
2022-08-17T10:08:24.261Z,10.25
2022-08-17T10:11:19.725Z,11.23
2022-08-17T10:13:56.010Z,9.10
2022-08-17T10:16:44.693Z,8.70
2022-08-17T10:19:35.605Z,9.00
2022-08-17T10:22:37.914Z,7.43
2022-08-17T10:25:37.614Z,7.93
2022-08-17T10:28:25.808Z,7.85
2022-08-17T10:34:38.662Z,7.95
2022-08-17T10:37:19.810Z,8.05
2022-08-17T10:40:14.953Z,8.60
2022-08-17T10:42:59.174Z,8.45
2022-08-17T10:46:09.417Z,9.88
2022-08-17T10:49:16.619Z,9.48
2022-08-17T10:51:54.691Z,8.93
2022-08-17T10:54:24.038Z,9.03
2022-08-17T10:57:01.734Z,10.35
2022-08-17T10:59:43.743Z,10.43
2022-08-17T11:02:38.692Z,10.30
2022-08-17T11:05:23.627Z,11.75
2022-08-17T11:08:04.687Z,11.00
2022-08-17T11:10:51.978Z,12.38
2022-08-17T11:13:43.103Z,11.60
2022-08-17T11:16:41.763Z,11.98
2022-08-17T11:19:39.713Z,12.30
2022-08-17T11:22:33.609Z,11.23
2022-08-17T11:25:25.694Z,13.23
2022-08-17T11:28:40.680Z,14.13
2022-08-17T11:31:38.281Z,14.00
2022-08-17T11:34:35.169Z,16.48
2022-08-17T11:37:02.022Z,15.23
2022-08-17T11:40:12.938Z,16.50
2022-08-17T11:42:51.772Z,18.85
2022-08-17T11:45:43.755Z,24.77
2022-08-17T11:48:44.711Z,23.70
2022-08-17T11:51:35.669Z,18.33
2022-08-17T11:54:32.146Z,22.77
2022-08-17T11:57:27.734Z,22.27
2022-08-17T11:59:58.586Z,21.05
2022-08-17T12:02:37.698Z,22.00
2022-08-17T12:05:28.697Z,21.27
2022-08-17T12:08:33.480Z,24.48
2022-08-17T12:11:57.833Z,21.95
2022-08-17T12:14:45.445Z,25.65
2022-08-17T12:17:40.838Z,21.60
2022-08-17T12:20:56.780Z,21.67
2022-08-17T12:23:40.625Z,20.80
2022-08-17T12:26:28.675Z,19.02
2022-08-17T12:29:00.008Z,22.83
2022-08-17T12:31:44.686Z,20.67
2022-08-17T12:34:34.713Z,24.80
2022-08-17T12:37:05.757Z,21.55
2022-08-17T12:39:38.746Z,22.50
2022-08-17T12:42:28.717Z,21.73
2022-08-17T12:44:55.610Z,21.75
2022-08-17T12:47:29.445Z,22.57
2022-08-17T12:50:29.206Z,22.88
2022-08-17T12:53:02.674Z,24.15
2022-08-17T12:55:35.047Z,23.35
2022-08-17T12:58:13.606Z,21.38
2022-08-17T13:00:48.767Z,19.77
2022-08-17T13:03:25.691Z,23.38
2022-08-17T13:05:52.211Z,20.65
2022-08-17T13:08:48.686Z,22.17
2022-08-17T13:11:16.120Z,22.85
2022-08-17T13:13:52.726Z,21.80
2022-08-17T13:19:39.869Z,22.20
2022-08-17T13:22:18.694Z,23.52
2022-08-17T13:25:04.678Z,28.00
2022-08-17T13:27:32.855Z,27.53
2022-08-17T13:30:18.694Z,25.50
2022-08-17T13:32:55.898Z,23.80
2022-08-17T13:35:44.136Z,26.50
2022-08-17T13:38:42.681Z,24.67
2022-08-17T13:41:36.687Z,26.53
2022-08-17T13:44:39.676Z,23.05
2022-08-17T13:47:16.565Z,26.10
2022-08-17T13:49:50.711Z,25.98
2022-08-17T13:52:50.071Z,27.95
2022-08-17T13:55:28.691Z,24.73
2022-08-17T13:58:07.180Z,23.48
2022-08-17T14:00:42.683Z,25.35
2022-08-17T14:03:16.684Z,25.23
2022-08-17T14:05:43.238Z,24.73
2022-08-17T14:08:20.743Z,28.37
2022-08-17T14:10:57.109Z,27.10
2022-08-17T14:13:30.696Z,25.02
2022-08-17T14:15:57.306Z,22.40
2022-08-17T14:18:55.541Z,24.17
2022-08-17T14:21:23.697Z,26.77
2022-08-17T14:26:52.720Z,25.45
2022-08-17T14:29:27.685Z,27.92
2022-08-17T14:31:55.367Z,25.92
2022-08-17T14:34:30.691Z,24.53
2022-08-17T14:36:57.086Z,25.45
2022-08-17T14:39:29.731Z,25.40
2022-08-17T14:42:04.698Z,25.55
2022-08-17T14:44:31.271Z,23.58
2022-08-17T14:46:57.731Z,28.50
2022-08-17T14:49:32.712Z,24.88
2022-08-17T14:52:06.676Z,22.65
2022-08-17T14:54:45.158Z,25.65
2022-08-17T14:57:33.743Z,25.95
2022-08-17T15:00:06.671Z,26.87
2022-08-17T15:02:44.069Z,21.83
2022-08-17T15:05:16.690Z,27.67
2022-08-17T15:07:44.511Z,26.60
2022-08-17T15:10:23.411Z,29.60
2022-08-17T15:12:52.150Z,22.67
2022-08-17T15:15:24.662Z,23.52
2022-08-17T15:17:51.582Z,24.83
2022-08-17T15:20:27.738Z,25.02
2022-08-17T15:22:56.105Z,22.92
2022-08-17T15:25:24.947Z,21.73
2022-08-17T15:27:58.705Z,22.45
2022-08-17T15:30:27.143Z,22.67
2022-08-17T15:33:00.762Z,23.00
2022-08-17T15:35:30.411Z,21.33
2022-08-17T15:38:11.799Z,23.33
2022-08-17T15:40:43.373Z,20.52
2022-08-17T15:43:26.450Z,20.98
2022-08-17T15:46:18.666Z,22.35
2022-08-17T15:48:58.671Z,19.92
2022-08-17T15:51:41.219Z,21.97
2022-08-17T15:54:18.912Z,18.05
2022-08-17T15:56:56.680Z,18.17
2022-08-17T15:59:23.093Z,16.80
2022-08-17T16:03:14.688Z,17.35
2022-08-17T16:04:44.142Z,17.27
2022-08-17T16:07:21.872Z,17.02
2022-08-17T16:09:58.694Z,14.85
2022-08-17T16:12:32.673Z,14.18
2022-08-17T16:14:59.256Z,14.40
2022-08-17T16:17:38.898Z,15.77
2022-08-17T16:20:20.440Z,16.90
2022-08-17T16:22:49.225Z,15.65
2022-08-17T16:25:52.212Z,15.98
2022-08-17T16:28:22.735Z,18.77
2022-08-17T16:31:08.878Z,19.13
2022-08-17T16:33:37.598Z,19.40
2022-08-17T16:36:10.675Z,17.10
2022-08-17T16:38:38.640Z,18.90
2022-08-17T16:41:12.660Z,19.42
2022-08-17T16:43:45.711Z,19.60
2022-08-17T16:46:45.887Z,19.50
2022-08-17T16:49:35.749Z,19.00
2022-08-17T16:52:14.669Z,21.33
2022-08-17T16:55:01.348Z,19.80
2022-08-17T16:57:34.696Z,23.27
2022-08-17T17:00:12.659Z,23.00
2022-08-17T17:02:57.867Z,24.23
2022-08-17T17:05:55.222Z,24.13
2022-08-17T17:08:50.823Z,25.98
2022-08-17T17:11:34.047Z,23.20
2022-08-17T17:14:10.675Z,23.35
2022-08-17T17:17:10.582Z,21.43
2022-08-17T17:19:45.948Z,25.45
2022-08-17T17:22:24.601Z,19.85
2022-08-17T17:25:21.679Z,25.13
2022-08-17T17:28:12.664Z,22.90
2022-08-17T17:31:03.260Z,19.73
2022-08-17T17:33:52.575Z,21.92
2022-08-17T17:36:32.590Z,25.33
2022-08-17T17:39:12.578Z,23.80
2022-08-17T17:41:51.444Z,24.58
2022-08-17T17:44:30.657Z,29.40
2022-08-17T17:47:00.091Z,27.23
2022-08-17T17:49:30.300Z,26.15
2022-08-17T17:52:18.897Z,24.50
2022-08-17T17:55:02.593Z,29.52
2022-08-17T17:58:02.576Z,26.63
2022-08-17T18:00:53.355Z,23.85
2022-08-17T18:03:50.583Z,30.60
2022-08-17T18:06:45.434Z,26.65
2022-08-17T18:09:38.578Z,29.42
2022-08-17T18:12:39.002Z,26.07
2022-08-17T18:15:21.465Z,31.90
2022-08-17T18:18:31.081Z,31.60
2022-08-17T18:21:14.568Z,34.17
2022-08-17T18:24:01.835Z,27.40
2022-08-17T18:26:56.578Z,31.37
2022-08-17T18:29:38.777Z,39.63
2022-08-17T18:32:19.350Z,28.75
2022-08-17T18:34:55.582Z,34.20
2022-08-17T18:37:39.568Z,30.80
2022-08-17T18:40:26.590Z,33.77
2022-08-17T18:43:05.152Z,30.45
2022-08-17T18:45:56.583Z,31.73
2022-08-17T18:48:29.794Z,28.50
2022-08-17T18:51:40.733Z,27.00
2022-08-17T18:54:23.957Z,28.40
2022-08-17T18:57:05.556Z,32.15
2022-08-17T18:59:42.305Z,32.05
2022-08-17T19:02:34.634Z,32.92
2022-08-17T19:05:26.259Z,38.25
2022-08-17T19:07:59.634Z,34.03
2022-08-17T19:10:46.365Z,36.92
2022-08-17T19:13:36.669Z,30.55
2022-08-17T19:16:18.718Z,34.17
2022-08-17T19:19:20.672Z,30.95
2022-08-17T19:22:13.612Z,29.63
2022-08-17T19:25:02.579Z,31.55
2022-08-17T19:27:46.510Z,30.05
2022-08-17T19:30:24.661Z,28.55
2022-08-17T19:32:51.428Z,33.17
2022-08-17T19:35:20.161Z,27.63
2022-08-17T19:37:59.601Z,28.40
2022-08-17T19:43:40.639Z,28.10
2022-08-17T19:46:35.561Z,29.13
2022-08-17T19:49:22.381Z,28.17
2022-08-17T19:52:26.596Z,27.45
2022-08-17T19:55:08.725Z,26.48
2022-08-17T19:57:45.528Z,28.95
2022-08-17T20:00:22.567Z,28.73
2022-08-17T20:03:06.074Z,30.13
2022-08-17T20:06:10.876Z,24.65
2022-08-17T20:08:39.193Z,26.90
2022-08-17T20:11:26.575Z,25.40
2022-08-17T20:14:03.603Z,24.23
2022-08-17T20:16:46.552Z,22.57
2022-08-17T20:19:29.281Z,26.58
2022-08-17T20:22:10.553Z,22.05
2022-08-17T20:24:54.618Z,24.02
2022-08-17T20:27:31.589Z,24.83
2022-08-17T20:30:12.129Z,24.30
2022-08-17T20:33:02.568Z,24.15
2022-08-17T20:35:37.254Z,23.88
2022-08-17T20:38:48.775Z,26.42
2022-08-17T20:41:20.910Z,24.30
2022-08-17T20:43:58.576Z,25.43
2022-08-17T20:46:40.330Z,23.45
2022-08-17T20:49:29.541Z,27.67
2022-08-17T20:52:13.923Z,25.75
2022-08-17T20:54:54.574Z,23.35
2022-08-17T20:57:33.577Z,21.03
2022-08-17T21:00:24.552Z,26.27
2022-08-17T21:03:18.565Z,20.85
2022-08-17T21:05:57.327Z,22.75
2022-08-17T21:08:46.587Z,22.90
2022-08-17T21:12:03.104Z,21.77
2022-08-17T21:14:29.359Z,19.83
2022-08-17T21:17:22.363Z,24.13
2022-08-17T21:20:32.508Z,20.02
2022-08-17T21:23:32.197Z,20.67
2022-08-17T21:26:35.752Z,19.97
2022-08-17T21:29:31.608Z,23.02
2022-08-17T21:32:06.759Z,21.55
2022-08-17T21:34:44.211Z,20.38
2022-08-17T21:37:26.602Z,19.63
2022-08-17T21:40:01.677Z,19.33
2022-08-17T21:42:42.757Z,19.65
2022-08-17T21:45:19.627Z,23.45
2022-08-17T21:48:12.764Z,16.67
2022-08-17T21:50:41.752Z,14.63
2022-08-17T21:53:20.555Z,14.47
2022-08-17T21:55:50.368Z,15.50
2022-08-17T21:58:40.759Z,14.00
2022-08-17T22:01:28.637Z,16.08
2022-08-17T22:04:26.585Z,15.27
2022-08-17T22:06:57.114Z,13.33
2022-08-17T22:09:42.808Z,13.73
2022-08-17T22:12:13.595Z,15.02
2022-08-17T22:14:52.506Z,15.35
2022-08-17T22:17:29.794Z,12.32
2022-08-17T22:20:22.552Z,12.60
2022-08-17T22:23:07.419Z,14.63
2022-08-17T22:25:43.551Z,11.95
2022-08-17T22:28:12.223Z,12.63
2022-08-17T22:30:40.170Z,13.82
2022-08-17T22:33:50.761Z,13.83
2022-08-17T22:36:33.804Z,11.88
2022-08-17T22:39:10.725Z,11.07
2022-08-17T22:41:42.157Z,10.30
2022-08-17T22:44:36.738Z,11.57
2022-08-17T22:47:16.441Z,12.37
2022-08-17T22:50:06.581Z,10.75
2022-08-17T22:53:03.749Z,11.38
2022-08-17T22:55:50.910Z,15.98
2022-08-17T22:58:59.141Z,13.73
2022-08-17T23:25:09.724Z,11.90
2022-08-17T23:27:36.828Z,13.25
2022-08-17T23:30:10.769Z,9.90
2022-08-17T23:32:47.413Z,10.85
2022-08-17T23:35:40.097Z,14.93
2022-08-17T23:38:12.973Z,12.45
2022-08-17T23:40:46.609Z,15.65
2022-08-17T23:43:23.937Z,12.85
2022-08-17T23:45:58.554Z,15.95
2022-08-17T23:48:36.031Z,10.93
2022-08-17T23:51:26.735Z,12.00
2022-08-17T23:53:58.268Z,11.65
2022-08-17T23:56:26.058Z,10.90
2022-08-17T23:59:04.653Z,13.57
